Ics Integrity — C6DK8 — position and weather

sailwx.info

Track history (hours):
 
Tides and Currents Weather Stations Pressure Air Temp Water Temp Dewpoint Dewpoint Depression Visibility Wind Speed Wind Dir Waves Ship Positions

Ics Integrity

Last reported at 2018-Feb-20 20:09 UTC. Time now 2018-Feb-20 21:28 UTC.
Position S 38°50' E 148°07'.

Length 112 m; draft 7.5 m.

Type: Tanker. MMSI: 311000706.

Date/timePositionNaut miles runAvg speedWind from/ knotsBaromVisibWave heightAir tempDewpointWater temp
2018-Feb-20 20:09S 38°50' E 148°07'3 8.6
2018-Feb-20 19:47S 38°51' E 148°03'46 7.3
2018-Feb-20 13:28S 39°07' E 147°07'53 7.4
2018-Feb-20 06:17S 39°13' E 145°59'2 7.5
2018-Feb-20 06:00S 39°12' E 145°57'9 7.7
2018-Feb-20 04:50S 39°07' E 145°47'  
2018-Feb-18 00:09S 39°03' E 145°51'410.0
2018-Feb-17 23:47S 39°05' E 145°56'19 9.8
2018-Feb-17 21:48S 39°12' E 146°19'12 9.8
2018-Feb-17 20:35S 39°09' E 146°34'1 9.6
2018-Feb-17 20:30S 39°09' E 146°35'5 9.4
2018-Feb-17 20:00S 39°07' E 146°41'7 9.4
2018-Feb-17 19:16S 39°05' E 146°49'3 9.1
2018-Feb-17 19:00S 39°05' E 146°52'4 9.1
2018-Feb-17 18:30S 39°03' E 146°58'5 9.2
2018-Feb-17 18:00S 39°02' E 147°03'5 9.3
2018-Feb-17 17:29S 39°00' E 147°09'5 9.4
2018-Feb-17 17:00S 38°59' E 147°15'6 9.8
2018-Feb-17 16:25S 38°57' E 147°21'4010.8
2018-Feb-17 12:42S 38°44' E 148°10'211.4
2018-Feb-17 12:30S 38°43' E 148°13'611.2
2018-Feb-17 11:59S 38°40' E 148°19'710.6
2018-Feb-17 11:22S 38°37' E 148°27'410.5
2018-Feb-17 11:00S 38°35' E 148°30'610.6
2018-Feb-17 10:29S 38°32' E 148°36'510.4
2018-Feb-17 10:00S 38°29' E 148°42'610.2
2018-Feb-17 09:27S 38°26' E 148°48'510.3
2018-Feb-17 08:58S 38°23' E 148°53'510.3
2018-Feb-17 08:30S 38°21' E 148°59'610.3
2018-Feb-17 07:54S 38°18' E 149°05'410.5
2018-Feb-17 07:30S 38°15' E 149°10'510.4
2018-Feb-17 06:59S 38°13' E 149°16'510.2
2018-Feb-17 06:30S 38°10' E 149°21'510.4
2018-Feb-17 05:59S 38°07' E 149°27'510.5
2018-Feb-17 05:30S 38°04' E 149°32'510.3
2018-Feb-17 05:00S 38°01' E 149°38'510.4
2018-Feb-17 04:28S 37°59' E 149°43'510.0
2018-Feb-17 03:59S 37°56' E 149°49'610.1
2018-Feb-17 03:23S 37°53' E 149°55'4 9.8
2018-Feb-17 02:56S 37°51' E 150°00'236 9.9
2018-Feb-16 03:02S 34°06' E 151°28'110.1
2018-Feb-16 02:56S 34°05' E 151°28'16 0.6
2018-Feb-14 22:16S 33°50' E 151°23'2 7.1
2018-Feb-14 22:00S 33°49' E 151°24'3 5.8
2018-Feb-14 21:30S 33°46' E 151°26'4 8.5
2018-Feb-14 21:00S 33°42' E 151°25'5 8.7
2018-Feb-14 20:29S 33°38' E 151°24'3 6.5
2018-Feb-14 20:00S 33°34' E 151°23'0 0.2
2018-Feb-14 19:29S 33°34' E 151°23'0 0.0
2018-Feb-14 18:56S 33°34' E 151°23'0 0.0
2018-Feb-14 18:29S 33°34' E 151°23'0 0.0
2018-Feb-14 17:56S 33°34' E 151°23'0 0.1
2018-Feb-14 17:29S 33°34' E 151°23'0 0.0
2018-Feb-14 16:59S 33°34' E 151°23'0 0.0
2018-Feb-14 16:29S 33°34' E 151°23'0 0.0
2018-Feb-14 15:59S 33°34' E 151°23'0 0.0
2018-Feb-14 15:29S 33°34' E 151°23'0 0.1
2018-Feb-14 14:59S 33°34' E 151°23'0 0.0
2018-Feb-14 14:14S 33°34' E 151°23'0 0.0
2018-Feb-14 13:59S 33°34' E 151°23'0 0.0
2018-Feb-14 13:29S 33°34' E 151°23'0 0.0
2018-Feb-14 12:59S 33°34' E 151°23'0 0.0
2018-Feb-14 12:29S 33°34' E 151°23'0 0.0
2018-Feb-14 11:59S 33°34' E 151°23'0 0.0
2018-Feb-14 11:29S 33°34' E 151°23'0 0.1
2018-Feb-14 10:59S 33°34' E 151°23'0 0.4
2018-Feb-14 10:29S 33°35' E 151°23'0 0.0
2018-Feb-14 09:32S 33°35' E 151°23'0 0.5
2018-Feb-14 09:26S 33°35' E 151°23'0 0.1
2018-Feb-14 08:59S 33°35' E 151°23'0 0.1
2018-Feb-14 08:26S 33°35' E 151°23'0 0.0
2018-Feb-14 07:59S 33°35' E 151°23'0 0.1
2018-Feb-14 07:29S 33°35' E 151°23'0 0.1
2018-Feb-14 06:59S 33°35' E 151°23'0 0.0
2018-Feb-14 06:26S 33°35' E 151°23'0 0.0
2018-Feb-14 05:59S 33°35' E 151°23'0 0.0
2018-Feb-14 05:29S 33°35' E 151°23'0 0.0
2018-Feb-14 04:59S 33°35' E 151°23'0 0.0
2018-Feb-14 04:29S 33°35' E 151°23'0 0.0
2018-Feb-14 03:59S 33°35' E 151°23'0 0.0
2018-Feb-14 03:20S 33°35' E 151°23'0 0.0
2018-Feb-14 02:59S 33°35' E 151°23'0 0.0
2018-Feb-14 02:26S 33°35' E 151°23'0 0.1
2018-Feb-14 01:59S 33°35' E 151°23'0 0.0
2018-Feb-14 01:29S 33°35' E 151°23'0 0.0
2018-Feb-14 00:59S 33°35' E 151°23'0 0.0
2018-Feb-14 00:29S 33°35' E 151°23'0 0.0
2018-Feb-13 23:59S 33°35' E 151°23'0 0.0
2018-Feb-13 23:17S 33°35' E 151°23'0 0.1
2018-Feb-13 22:10S 33°35' E 151°23'0 1.2
2018-Feb-13 22:00S 33°35' E 151°23'3 5.3
2018-Feb-13 21:22S 33°38' E 151°25'2 5.1
2018-Feb-13 21:00S 33°40' E 151°25'3 5.0
2018-Feb-13 20:30S 33°42' E 151°26'3 5.2
2018-Feb-13 19:53S 33°45' E 151°27'4 5.1
2018-Feb-13 19:08S 33°49' E 151°28'1 4.9
2018-Feb-13 18:59S 33°50' E 151°29'  
2018-Feb-11 12:32S 39°16' E 146°12'  
Track history (hours):
 
Tides and Currents Weather Stations Pressure Air Temp Water Temp Dewpoint Dewpoint Depression Visibility Wind Speed Wind Dir Waves Ship Positions

Ics Integrity

Last reported at 2018-Feb-20 20:09 UTC. Time now 2018-Feb-20 21:28 UTC.
Position S 38°50' E 148°07'.

Length 112 m; draft 7.5 m.

Type: Tanker. MMSI: 311000706.

Date/timePositionNaut miles runAvg speedWind from/ knotsBaromVisibWave heightAir tempDewpointWater temp
2018-Feb-20 20:09S 38°50' E 148°07'3 8.6
2018-Feb-20 19:47S 38°51' E 148°03'46 7.3
2018-Feb-20 13:28S 39°07' E 147°07'53 7.4
2018-Feb-20 06:17S 39°13' E 145°59'2 7.5
2018-Feb-20 06:00S 39°12' E 145°57'9 7.7
2018-Feb-20 04:50S 39°07' E 145°47'  
2018-Feb-18 00:09S 39°03' E 145°51'410.0
2018-Feb-17 23:47S 39°05' E 145°56'19 9.8
2018-Feb-17 21:48S 39°12' E 146°19'12 9.8
2018-Feb-17 20:35S 39°09' E 146°34'1 9.6
2018-Feb-17 20:30S 39°09' E 146°35'5 9.4
2018-Feb-17 20:00S 39°07' E 146°41'7 9.4
2018-Feb-17 19:16S 39°05' E 146°49'3 9.1
2018-Feb-17 19:00S 39°05' E 146°52'4 9.1
2018-Feb-17 18:30S 39°03' E 146°58'5 9.2
2018-Feb-17 18:00S 39°02' E 147°03'5 9.3
2018-Feb-17 17:29S 39°00' E 147°09'5 9.4
2018-Feb-17 17:00S 38°59' E 147°15'6 9.8
2018-Feb-17 16:25S 38°57' E 147°21'4010.8
2018-Feb-17 12:42S 38°44' E 148°10'211.4
2018-Feb-17 12:30S 38°43' E 148°13'611.2
2018-Feb-17 11:59S 38°40' E 148°19'710.6
2018-Feb-17 11:22S 38°37' E 148°27'410.5
2018-Feb-17 11:00S 38°35' E 148°30'610.6
2018-Feb-17 10:29S 38°32' E 148°36'510.4
2018-Feb-17 10:00S 38°29' E 148°42'610.2
2018-Feb-17 09:27S 38°26' E 148°48'510.3
2018-Feb-17 08:58S 38°23' E 148°53'510.3
2018-Feb-17 08:30S 38°21' E 148°59'610.3
2018-Feb-17 07:54S 38°18' E 149°05'410.5
2018-Feb-17 07:30S 38°15' E 149°10'510.4
2018-Feb-17 06:59S 38°13' E 149°16'510.2
2018-Feb-17 06:30S 38°10' E 149°21'510.4
2018-Feb-17 05:59S 38°07' E 149°27'510.5
2018-Feb-17 05:30S 38°04' E 149°32'510.3
2018-Feb-17 05:00S 38°01' E 149°38'510.4
2018-Feb-17 04:28S 37°59' E 149°43'510.0
2018-Feb-17 03:59S 37°56' E 149°49'610.1
2018-Feb-17 03:23S 37°53' E 149°55'4 9.8
2018-Feb-17 02:56S 37°51' E 150°00'236 9.9
2018-Feb-16 03:02S 34°06' E 151°28'110.1
2018-Feb-16 02:56S 34°05' E 151°28'16 0.6
2018-Feb-14 22:16S 33°50' E 151°23'2 7.1
2018-Feb-14 22:00S 33°49' E 151°24'3 5.8
2018-Feb-14 21:30S 33°46' E 151°26'4 8.5
2018-Feb-14 21:00S 33°42' E 151°25'5 8.7
2018-Feb-14 20:29S 33°38' E 151°24'3 6.5
2018-Feb-14 20:00S 33°34' E 151°23'0 0.2
2018-Feb-14 19:29S 33°34' E 151°23'0 0.0
2018-Feb-14 18:56S 33°34' E 151°23'0 0.0
2018-Feb-14 18:29S 33°34' E 151°23'0 0.0
2018-Feb-14 17:56S 33°34' E 151°23'0 0.1
2018-Feb-14 17:29S 33°34' E 151°23'0 0.0
2018-Feb-14 16:59S 33°34' E 151°23'0 0.0
2018-Feb-14 16:29S 33°34' E 151°23'0 0.0
2018-Feb-14 15:59S 33°34' E 151°23'0 0.0
2018-Feb-14 15:29S 33°34' E 151°23'0 0.1
2018-Feb-14 14:59S 33°34' E 151°23'0 0.0
2018-Feb-14 14:14S 33°34' E 151°23'0 0.0
2018-Feb-14 13:59S 33°34' E 151°23'0 0.0
2018-Feb-14 13:29S 33°34' E 151°23'0 0.0
2018-Feb-14 12:59S 33°34' E 151°23'0 0.0
2018-Feb-14 12:29S 33°34' E 151°23'0 0.0
2018-Feb-14 11:59S 33°34' E 151°23'0 0.0
2018-Feb-14 11:29S 33°34' E 151°23'0 0.1
2018-Feb-14 10:59S 33°34' E 151°23'0 0.4
2018-Feb-14 10:29S 33°35' E 151°23'0 0.0
2018-Feb-14 09:32S 33°35' E 151°23'0 0.5
2018-Feb-14 09:26S 33°35' E 151°23'0 0.1
2018-Feb-14 08:59S 33°35' E 151°23'0 0.1
2018-Feb-14 08:26S 33°35' E 151°23'0 0.0
2018-Feb-14 07:59S 33°35' E 151°23'0 0.1
2018-Feb-14 07:29S 33°35' E 151°23'0 0.1
2018-Feb-14 06:59S 33°35' E 151°23'0 0.0
2018-Feb-14 06:26S 33°35' E 151°23'0 0.0
2018-Feb-14 05:59S 33°35' E 151°23'0 0.0
2018-Feb-14 05:29S 33°35' E 151°23'0 0.0
2018-Feb-14 04:59S 33°35' E 151°23'0 0.0
2018-Feb-14 04:29S 33°35' E 151°23'0 0.0
2018-Feb-14 03:59S 33°35' E 151°23'0 0.0
2018-Feb-14 03:20S 33°35' E 151°23'0 0.0
2018-Feb-14 02:59S 33°35' E 151°23'0 0.0
2018-Feb-14 02:26S 33°35' E 151°23'0 0.1
2018-Feb-14 01:59S 33°35' E 151°23'0 0.0
2018-Feb-14 01:29S 33°35' E 151°23'0 0.0
2018-Feb-14 00:59S 33°35' E 151°23'0 0.0
2018-Feb-14 00:29S 33°35' E 151°23'0 0.0
2018-Feb-13 23:59S 33°35' E 151°23'0 0.0
2018-Feb-13 23:17S 33°35' E 151°23'0 0.1
2018-Feb-13 22:10S 33°35' E 151°23'0 1.2
2018-Feb-13 22:00S 33°35' E 151°23'3 5.3
2018-Feb-13 21:22S 33°38' E 151°25'2 5.1
2018-Feb-13 21:00S 33°40' E 151°25'3 5.0
2018-Feb-13 20:30S 33°42' E 151°26'3 5.2
2018-Feb-13 19:53S 33°45' E 151°27'4 5.1
2018-Feb-13 19:08S 33°49' E 151°28'1 4.9
2018-Feb-13 18:59S 33°50' E 151°29'  
2018-Feb-11 12:32S 39°16' E 146°12'  

Dump ship's entire track history